createdAt,value
2017-05-07T00:00:07.675Z,1008.74
2017-05-07T00:01:16.997Z,1008.72
2017-05-07T00:02:26.952Z,1008.68
2017-05-07T00:03:36.906Z,1008.64
2017-05-07T00:04:47.190Z,1008.66
2017-05-07T00:05:57.470Z,1008.65
2017-05-07T00:07:07.136Z,1008.66
2017-05-07T00:08:17.403Z,1008.63
2017-05-07T00:09:27.357Z,1008.63
2017-05-07T00:10:37.308Z,1008.64
2017-05-07T00:11:47.265Z,1008.65
2017-05-07T00:12:56.905Z,1008.61
2017-05-07T00:14:07.165Z,1008.61
2017-05-07T00:15:17.437Z,1008.6
2017-05-07T00:16:27.704Z,1008.58
2017-05-07T00:17:37.963Z,1008.63
2017-05-07T00:18:47.919Z,1008.61
2017-05-07T00:19:57.901Z,1008.6
2017-05-07T00:21:07.861Z,1008.61
2017-05-07T00:22:18.132Z,1008.56
2017-05-07T00:23:27.448Z,1008.58
2017-05-07T00:24:37.093Z,1008.55
2017-05-07T00:25:47.354Z,1008.57
2017-05-07T00:26:57.619Z,1008.53
2017-05-07T00:28:07.895Z,1008.56
2017-05-07T00:29:17.909Z,1008.56
2017-05-07T00:30:27.548Z,1008.56
2017-05-07T00:31:37.498Z,1008.56
2017-05-07T00:32:47.448Z,1008.56
2017-05-07T00:33:57.721Z,1008.58
2017-05-07T00:35:07.681Z,1008.55
2017-05-07T00:36:17.638Z,1008.6
2017-05-07T00:37:27.898Z,1008.59
2017-05-07T00:38:37.852Z,1008.6
2017-05-07T00:39:47.806Z,1008.63
2017-05-07T00:40:57.762Z,1008.63
2017-05-07T00:42:07.718Z,1008.61
2017-05-07T00:43:17.677Z,1008.57
2017-05-07T00:44:27.637Z,1008.59
2017-05-07T00:45:37.279Z,1008.63
2017-05-07T00:46:46.912Z,1008.59
2017-05-07T00:47:57.180Z,1008.64
2017-05-07T00:49:07.141Z,1008.58
2017-05-07T00:50:17.097Z,1008.6
2017-05-07T00:51:27.053Z,1008.57
2017-05-07T00:52:37.318Z,1008.55
2017-05-07T00:53:47.594Z,1008.55
2017-05-07T00:54:57.862Z,1008.59
2017-05-07T00:56:07.815Z,1008.57
2017-05-07T00:57:17.766Z,1008.59
2017-05-07T00:58:28.035Z,1008.51
2017-05-07T00:59:38.307Z,1008.52
2017-05-07T01:00:48.588Z,1008.52
2017-05-07T01:01:58.540Z,1008.53
2017-05-07T01:03:08.820Z,1008.5
2017-05-07T01:04:19.101Z,1008.58
2017-05-07T01:05:29.378Z,1008.56
2017-05-07T01:06:39.648Z,1008.56
2017-05-07T01:07:49.632Z,1008.57
2017-05-07T01:08:59.593Z,1008.57
2017-05-07T01:10:09.546Z,1008.55
2017-05-07T01:11:19.488Z,1008.54
2017-05-07T01:12:29.152Z,1008.51
2017-05-07T01:13:39.110Z,1008.51
2017-05-07T01:14:48.747Z,1008.49
2017-05-07T01:15:59.015Z,1008.45
2017-05-07T01:17:08.960Z,1008.44
2017-05-07T01:18:19.231Z,1008.45
2017-05-07T01:19:28.874Z,1008.44
2017-05-07T01:20:39.144Z,1008.48
2017-05-07T01:21:49.415Z,1008.47
2017-05-07T01:22:59.375Z,1008.51
2017-05-07T01:24:09.031Z,1008.52
2017-05-07T01:25:18.040Z,1008.5
2017-05-07T01:26:27.992Z,1008.46
2017-05-07T01:27:38.259Z,1008.47
2017-05-07T01:28:47.896Z,1008.48
2017-05-07T01:29:57.856Z,1008.44
2017-05-07T01:31:07.826Z,1008.43
2017-05-07T01:32:17.778Z,1008.48
2017-05-07T01:33:27.733Z,1008.51
2017-05-07T01:34:37.689Z,1008.5
2017-05-07T01:35:47.955Z,1008.46
2017-05-07T01:36:57.906Z,1008.48
2017-05-07T01:38:07.540Z,1008.47
2017-05-07T01:39:16.899Z,1008.48
2017-05-07T01:40:26.223Z,1008.46
2017-05-07T01:41:36.183Z,1008.49
2017-05-07T01:42:46.457Z,1008.48
2017-05-07T01:43:56.731Z,1008.47
2017-05-07T01:45:06.994Z,1008.46
2017-05-07T01:46:17.258Z,1008.43
2017-05-07T01:47:27.243Z,1008.44
2017-05-07T01:48:37.531Z,1008.39
2017-05-07T01:49:47.799Z,1008.38
2017-05-07T01:50:57.754Z,1008.39
2017-05-07T01:52:08.020Z,1008.4
2017-05-07T01:53:18.285Z,1008.4
2017-05-07T01:54:28.254Z,1008.42
2017-05-07T01:55:38.526Z,1008.37
2017-05-07T01:56:48.801Z,1008.41
2017-05-07T01:57:59.067Z,1008.4
2017-05-07T01:59:09.338Z,1008.41
2017-05-07T02:00:19.310Z,1008.42
2017-05-07T02:01:29.268Z,1008.4
2017-05-07T02:02:39.229Z,1008.41
2017-05-07T02:03:49.498Z,1008.44
2017-05-07T02:04:59.766Z,1008.42
2017-05-07T02:06:09.124Z,1008.45
2017-05-07T02:07:19.072Z,1008.4
2017-05-07T02:08:29.368Z,1008.41
2017-05-07T02:09:39.328Z,1008.38
2017-05-07T02:10:49.279Z,1008.4
2017-05-07T02:11:59.544Z,1008.39
2017-05-07T02:13:09.180Z,1008.35
2017-05-07T02:14:19.160Z,1008.33
2017-05-07T02:15:29.115Z,1008.37
2017-05-07T02:16:39.060Z,1008.35
2017-05-07T02:17:49.324Z,1008.38
2017-05-07T02:18:59.285Z,1008.34
2017-05-07T02:20:09.554Z,1008.35
2017-05-07T02:21:19.821Z,1008.33
2017-05-07T02:22:30.095Z,1008.29
2017-05-07T02:23:39.412Z,1008.28
2017-05-07T02:24:49.682Z,1008.28
2017-05-07T02:25:59.634Z,1008.28
2017-05-07T02:27:09.586Z,1008.23
2017-05-07T02:28:19.855Z,1008.26
2017-05-07T02:29:29.807Z,1008.24
2017-05-07T02:30:39.442Z,1008.23
2017-05-07T02:31:49.394Z,1008.18
2017-05-07T02:32:59.661Z,1008.21
2017-05-07T02:34:09.933Z,1008.16
2017-05-07T02:35:19.881Z,1008.14
2017-05-07T02:36:30.155Z,1008.12
2017-05-07T02:37:40.424Z,1008.12
2017-05-07T02:38:50.371Z,1008.13
2017-05-07T02:40:00.638Z,1008.14
2017-05-07T02:41:10.592Z,1008.11
2017-05-07T02:42:20.853Z,1008.09
2017-05-07T02:43:30.494Z,1008.11
2017-05-07T02:44:40.450Z,1008.09
2017-05-07T02:45:50.088Z,1008.1
2017-05-07T02:47:00.356Z,1008.05
2017-05-07T02:48:10.625Z,1008.06
2017-05-07T02:49:20.892Z,1008.06
2017-05-07T02:50:30.535Z,1008.08
2017-05-07T02:51:40.805Z,1008.04
2017-05-07T02:52:50.756Z,1008.1
2017-05-07T02:54:01.027Z,1008.1
2017-05-07T02:55:10.988Z,1008.06
2017-05-07T02:56:20.937Z,1008.07
2017-05-07T02:57:30.897Z,1008.05
2017-05-07T02:58:41.161Z,1008.05
2017-05-07T02:59:51.118Z,1008.03
2017-05-07T03:01:01.387Z,1008.02
2017-05-07T03:02:11.332Z,1008.06
2017-05-07T03:03:21.596Z,1008.04
2017-05-07T03:04:31.558Z,1008.07
2017-05-07T03:05:41.822Z,1008.02
2017-05-07T03:06:51.139Z,1008.06
2017-05-07T03:08:01.089Z,1008.06
2017-05-07T03:09:11.357Z,1008.07
2017-05-07T03:10:21.651Z,1008.07
2017-05-07T03:11:31.295Z,1008.08
2017-05-07T03:12:41.252Z,1008.08
2017-05-07T03:13:51.514Z,1008.09
2017-05-07T03:15:01.462Z,1008.08
2017-05-07T03:16:11.107Z,1008.01
2017-05-07T03:17:21.067Z,1008.06
2017-05-07T03:18:31.017Z,1008.05
2017-05-07T03:19:41.292Z,1008.07
2017-05-07T03:20:50.964Z,1008.08
2017-05-07T03:22:01.233Z,1008.06
2017-05-07T03:23:11.510Z,1008.07
2017-05-07T03:24:21.777Z,1008.03
2017-05-07T03:25:32.044Z,1008.03
2017-05-07T03:26:41.993Z,1007.99
2017-05-07T03:27:52.259Z,1008
2017-05-07T03:29:02.534Z,1008
2017-05-07T03:30:12.794Z,1007.99
2017-05-07T03:31:22.430Z,1008.03
2017-05-07T03:32:32.387Z,1007.98
2017-05-07T03:33:42.652Z,1008
2017-05-07T03:34:52.922Z,1007.99
2017-05-07T03:36:02.571Z,1007.97
2017-05-07T03:37:11.890Z,1007.98
2017-05-07T03:38:22.156Z,1007.97
2017-05-07T03:39:32.106Z,1007.98
2017-05-07T03:40:42.055Z,1007.96
2017-05-07T03:41:52.325Z,1007.95
2017-05-07T03:43:01.962Z,1007.97
2017-05-07T03:44:11.912Z,1007.99
2017-05-07T03:45:21.873Z,1007.99
2017-05-07T03:46:32.135Z,1007.98
2017-05-07T03:47:41.780Z,1007.97
2017-05-07T03:48:51.737Z,1008.03
2017-05-07T03:50:01.698Z,1008.02
2017-05-07T03:51:11.962Z,1007.96
2017-05-07T03:52:21.599Z,1007.93
2017-05-07T03:53:31.867Z,1007.97
2017-05-07T03:54:42.139Z,1007.95
2017-05-07T03:55:52.100Z,1007.98
2017-05-07T03:57:02.363Z,1007.96
2017-05-07T03:58:11.995Z,1007.97
2017-05-07T03:59:21.648Z,1007.94
2017-05-07T04:00:31.603Z,1007.96
2017-05-07T04:01:41.559Z,1007.95
2017-05-07T04:02:51.512Z,1007.97
2017-05-07T04:04:01.787Z,1007.93
2017-05-07T04:05:12.059Z,1007.99
2017-05-07T04:06:22.327Z,1007.99
2017-05-07T04:07:32.582Z,1007.94
2017-05-07T04:08:42.543Z,1007.92
2017-05-07T04:09:52.807Z,1007.94
2017-05-07T04:11:03.075Z,1007.93
2017-05-07T04:12:13.025Z,1007.92
2017-05-07T04:13:23.290Z,1007.93
2017-05-07T04:14:33.558Z,1007.96
2017-05-07T04:15:43.517Z,1007.98
2017-05-07T04:16:53.464Z,1007.99
2017-05-07T04:18:03.414Z,1007.96
2017-05-07T04:19:13.366Z,1007.97
2017-05-07T04:20:23.321Z,1007.99
2017-05-07T04:21:33.275Z,1007.95
2017-05-07T04:22:43.540Z,1007.99
2017-05-07T04:23:53.807Z,1007.97
2017-05-07T04:25:03.758Z,1007.95
2017-05-07T04:26:13.082Z,1007.97
2017-05-07T04:27:23.031Z,1007.94
2017-05-07T04:28:32.982Z,1007.93
2017-05-07T04:29:43.251Z,1007.93
2017-05-07T04:30:53.200Z,1007.93
2017-05-07T04:32:03.465Z,1007.95
2017-05-07T04:33:13.422Z,1007.97
2017-05-07T04:34:23.063Z,1007.92
2017-05-07T04:35:33.010Z,1007.94
2017-05-07T04:36:42.648Z,1007.96
2017-05-07T04:37:52.602Z,1007.99
2017-05-07T04:39:02.554Z,1007.98
2017-05-07T04:40:12.510Z,1008.04
2017-05-07T04:41:22.774Z,1008.04
2017-05-07T04:42:33.036Z,1008.05
2017-05-07T04:43:42.675Z,1008.1
2017-05-07T04:44:52.936Z,1008.05
2017-05-07T04:46:03.205Z,1008.07
2017-05-07T04:47:13.156Z,1008.05
2017-05-07T04:48:23.426Z,1008.06
2017-05-07T04:49:33.073Z,1008.07
2017-05-07T04:50:43.345Z,1008.06
2017-05-07T04:51:53.608Z,1008.08
2017-05-07T04:53:03.608Z,1008.06
2017-05-07T04:54:13.248Z,1008.1
2017-05-07T04:55:23.511Z,1008.12
2017-05-07T04:56:33.766Z,1008.08
2017-05-07T04:57:43.407Z,1008.12
2017-05-07T04:58:53.359Z,1008.16
2017-05-07T05:00:03.310Z,1008.19
2017-05-07T05:01:13.265Z,1008.2
2017-05-07T05:02:23.529Z,1008.19
2017-05-07T05:03:33.796Z,1008.2
2017-05-07T05:04:44.085Z,1008.26
2017-05-07T05:05:54.041Z,1008.27
2017-05-07T05:07:04.310Z,1008.3
2017-05-07T05:08:14.582Z,1008.33
2017-05-07T05:09:24.534Z,1008.33
2017-05-07T05:10:34.484Z,1008.33
2017-05-07T05:11:44.434Z,1008.37
2017-05-07T05:12:54.706Z,1008.35
2017-05-07T05:14:04.657Z,1008.31
2017-05-07T05:15:14.925Z,1008.34
2017-05-07T05:16:25.186Z,1008.35
2017-05-07T05:17:34.820Z,1008.38
2017-05-07T05:18:44.769Z,1008.38
2017-05-07T05:19:55.033Z,1008.39
2017-05-07T05:21:05.300Z,1008.41
2017-05-07T05:22:15.242Z,1008.42
2017-05-07T05:23:25.511Z,1008.47
2017-05-07T05:24:35.459Z,1008.45
2017-05-07T05:25:45.725Z,1008.48
2017-05-07T05:28:37.381Z,1008.49
2017-05-07T05:29:47.648Z,1008.48
2017-05-07T05:30:57.604Z,1008.5
2017-05-07T05:32:07.554Z,1008.46
2017-05-07T05:33:17.511Z,1008.5
2017-05-07T05:34:27.462Z,1008.52
2017-05-07T05:35:37.418Z,1008.56
2017-05-07T05:36:47.367Z,1008.51
2017-05-07T05:37:57.318Z,1008.55
2017-05-07T05:39:07.265Z,1008.53
2017-05-07T05:40:17.531Z,1008.54
2017-05-07T05:41:27.797Z,1008.6
2017-05-07T05:42:37.747Z,1008.58
2017-05-07T05:43:47.699Z,1008.62
2017-05-07T05:44:57.980Z,1008.61
2017-05-07T05:46:07.935Z,1008.64
2017-05-07T05:47:18.196Z,1008.64
2017-05-07T05:48:28.465Z,1008.64
2017-05-07T05:49:38.414Z,1008.65
2017-05-07T05:50:48.681Z,1008.64
2017-05-07T05:51:58.948Z,1008.68
2017-05-07T05:53:09.241Z,1008.68
2017-05-07T05:54:19.193Z,1008.67
2017-05-07T05:55:29.143Z,1008.66
2017-05-07T05:56:38.822Z,1008.68
2017-05-07T05:57:48.797Z,1008.67
2017-05-07T05:58:59.060Z,1008.67
2017-05-07T06:00:09.017Z,1008.73
2017-05-07T06:01:19.284Z,1008.73
2017-05-07T06:02:29.233Z,1008.72
2017-05-07T06:03:39.538Z,1008.72
2017-05-07T06:04:49.499Z,1008.79
2017-05-07T06:05:59.761Z,1008.77
2017-05-07T06:07:09.710Z,1008.8
2017-05-07T06:08:19.347Z,1008.75
2017-05-07T06:09:28.983Z,1008.77
2017-05-07T06:10:39.254Z,1008.79
2017-05-07T06:11:49.520Z,1008.82
2017-05-07T06:12:59.155Z,1008.83
2017-05-07T06:14:09.097Z,1008.83
2017-05-07T06:15:18.418Z,1008.82
2017-05-07T06:16:28.684Z,1008.78
2017-05-07T06:17:38.635Z,1008.85
2017-05-07T06:18:48.897Z,1008.85
2017-05-07T06:19:58.854Z,1008.85
2017-05-07T06:21:08.490Z,1008.88
2017-05-07T06:22:18.441Z,1008.9
2017-05-07T06:23:28.703Z,1008.88
2017-05-07T06:24:38.342Z,1008.91
2017-05-07T06:25:47.982Z,1008.93
2017-05-07T06:26:58.245Z,1008.94
2017-05-07T06:28:08.516Z,1008.95
2017-05-07T06:29:18.786Z,1008.96
2017-05-07T06:30:29.055Z,1008.96
2017-05-07T06:31:39.349Z,1008.97
2017-05-07T06:32:48.978Z,1008.99
2017-05-07T06:33:59.247Z,1008.97
2017-05-07T06:35:09.199Z,1008.95
2017-05-07T06:36:18.836Z,1009
2017-05-07T06:37:29.103Z,1009
2017-05-07T06:38:38.738Z,1009
2017-05-07T06:39:49.005Z,1009.02
2017-05-07T06:40:59.305Z,1009.05
2017-05-07T06:42:09.599Z,1009.02
2017-05-07T06:43:19.867Z,1009.03
2017-05-07T06:44:30.130Z,1009.02
2017-05-07T06:45:40.400Z,1008.99
2017-05-07T06:46:50.663Z,1009
2017-05-07T06:48:00.931Z,1008.94
2017-05-07T06:49:11.194Z,1008.99
2017-05-07T06:50:20.520Z,1008.97
2017-05-07T06:51:30.786Z,1008.98
2017-05-07T06:52:41.055Z,1009.03
2017-05-07T06:53:51.319Z,1008.97
2017-05-07T06:55:01.582Z,1009.02
2017-05-07T06:56:11.849Z,1009
2017-05-07T06:57:21.800Z,1009.02
2017-05-07T06:58:31.757Z,1009.05
2017-05-07T06:59:42.021Z,1009.05
2017-05-07T07:00:52.280Z,1009.1
2017-05-07T07:02:02.545Z,1009.05
2017-05-07T07:03:12.811Z,1009.05
2017-05-07T07:04:22.758Z,1009.05
2017-05-07T07:05:33.034Z,1009.07
2017-05-07T07:06:43.296Z,1009.08
2017-05-07T07:07:53.245Z,1009.08
2017-05-07T07:09:03.196Z,1009.12
2017-05-07T07:10:13.156Z,1009.11
2017-05-07T07:11:22.801Z,1009.12
2017-05-07T07:12:33.089Z,1009.14
2017-05-07T07:13:43.352Z,1009.18
2017-05-07T07:14:53.615Z,1009.15
2017-05-07T07:16:03.246Z,1009.18
2017-05-07T07:17:12.580Z,1009.2
2017-05-07T07:18:22.533Z,1009.16
2017-05-07T07:19:32.795Z,1009.18
2017-05-07T07:20:43.058Z,1009.14
2017-05-07T07:21:53.008Z,1009.12
2017-05-07T07:23:02.961Z,1009.13
2017-05-07T07:24:12.923Z,1009.14
2017-05-07T07:25:22.878Z,1009.12
2017-05-07T07:26:33.143Z,1009.12
2017-05-07T07:27:42.782Z,1009.14
2017-05-07T07:28:52.731Z,1009.17
2017-05-07T07:30:03.006Z,1009.17
2017-05-07T07:31:12.633Z,1009.17
2017-05-07T07:32:22.611Z,1009.16
2017-05-07T07:33:32.255Z,1009.21
2017-05-07T07:34:42.512Z,1009.18
2017-05-07T07:35:52.800Z,1009.2
2017-05-07T07:37:02.752Z,1009.22
2017-05-07T07:38:11.756Z,1009.19
2017-05-07T07:39:22.019Z,1009.16
2017-05-07T07:40:31.339Z,1009.18
2017-05-07T07:41:40.980Z,1009.16
2017-05-07T07:42:51.244Z,1009.19
2017-05-07T07:44:01.187Z,1009.24
2017-05-07T07:45:10.830Z,1009.19
2017-05-07T07:46:20.783Z,1009.23
2017-05-07T07:47:31.048Z,1009.24
2017-05-07T07:48:40.687Z,1009.27
2017-05-07T07:49:50.645Z,1009.25
2017-05-07T07:51:00.908Z,1009.23
2017-05-07T07:52:11.201Z,1009.24
2017-05-07T07:53:21.155Z,1009.24
2017-05-07T07:54:30.792Z,1009.28
2017-05-07T07:55:41.058Z,1009.25
2017-05-07T07:56:51.349Z,1009.29
2017-05-07T07:58:01.615Z,1009.3
2017-05-07T07:59:11.563Z,1009.33
2017-05-07T08:00:21.508Z,1009.31
2017-05-07T08:01:31.787Z,1009.33
2017-05-07T08:02:42.083Z,1009.31
2017-05-07T08:03:52.354Z,1009.35
2017-05-07T08:05:02.627Z,1009.34
2017-05-07T08:06:12.894Z,1009.33
2017-05-07T08:07:22.847Z,1009.35
2017-05-07T08:08:32.483Z,1009.38
2017-05-07T08:09:42.771Z,1009.33
2017-05-07T08:10:52.717Z,1009.41
2017-05-07T08:12:02.980Z,1009.37
2017-05-07T08:13:11.985Z,1009.38
2017-05-07T08:14:22.255Z,1009.35
2017-05-07T08:15:32.240Z,1009.39
2017-05-07T08:16:42.201Z,1009.36
2017-05-07T08:17:52.151Z,1009.41
2017-05-07T08:19:01.791Z,1009.36
2017-05-07T08:20:11.740Z,1009.4
2017-05-07T08:21:21.722Z,1009.39
2017-05-07T08:22:31.991Z,1009.4
2017-05-07T08:23:42.262Z,1009.39
2017-05-07T08:24:52.215Z,1009.42
2017-05-07T08:26:02.167Z,1009.41
2017-05-07T08:27:12.433Z,1009.43
2017-05-07T08:28:22.382Z,1009.38
2017-05-07T08:29:32.647Z,1009.44
2017-05-07T08:30:42.600Z,1009.45
2017-05-07T08:31:51.927Z,1009.48
2017-05-07T08:33:02.201Z,1009.45
2017-05-07T08:34:12.473Z,1009.48
2017-05-07T08:35:22.419Z,1009.47
2017-05-07T08:36:32.370Z,1009.54
2017-05-07T08:37:42.350Z,1009.55
2017-05-07T08:38:52.295Z,1009.55
2017-05-07T08:40:02.578Z,1009.58
2017-05-07T08:41:12.539Z,1009.57
2017-05-07T08:42:22.798Z,1009.62
2017-05-07T08:43:32.747Z,1009.56
2017-05-07T08:44:42.410Z,1009.59
2017-05-07T08:45:52.695Z,1009.6
2017-05-07T08:47:03.020Z,1009.6
2017-05-07T08:48:12.656Z,1009.6
2017-05-07T08:49:22.603Z,1009.62
2017-05-07T08:50:32.882Z,1009.6
2017-05-07T08:51:43.142Z,1009.63
2017-05-07T08:52:52.781Z,1009.64
2017-05-07T08:54:03.052Z,1009.69
2017-05-07T08:55:12.693Z,1009.67
2017-05-07T08:56:22.954Z,1009.65
2017-05-07T08:57:32.899Z,1009.66
2017-05-07T08:58:43.160Z,1009.65
2017-05-07T08:59:53.277Z,1009.65
2017-05-07T09:01:04.541Z,1009.61
2017-05-07T09:02:14.486Z,1009.6
2017-05-07T09:03:24.434Z,1009.58
2017-05-07T09:04:34.382Z,1009.61
2017-05-07T09:05:44.657Z,1009.62
2017-05-07T09:06:54.298Z,1009.57
2017-05-07T09:08:04.570Z,1009.61
2017-05-07T09:09:14.202Z,1009.6
2017-05-07T09:10:24.472Z,1009.6
2017-05-07T09:11:34.425Z,1009.68
2017-05-07T09:12:44.693Z,1009.66
2017-05-07T09:13:54.959Z,1009.69
2017-05-07T09:15:05.224Z,1009.72
2017-05-07T09:16:15.172Z,1009.69
2017-05-07T09:17:25.441Z,1009.71
2017-05-07T09:18:35.705Z,1009.73
2017-05-07T09:19:46.021Z,1009.78
2017-05-07T09:20:56.294Z,1009.74
2017-05-07T09:22:06.559Z,1009.77
2017-05-07T09:23:16.512Z,1009.75
2017-05-07T09:24:26.787Z,1009.77
2017-05-07T09:25:36.734Z,1009.81
2017-05-07T09:26:47.007Z,1009.82
2017-05-07T09:27:57.281Z,1009.81
2017-05-07T09:29:07.542Z,1009.81
2017-05-07T09:30:17.805Z,1009.78
2017-05-07T09:31:27.446Z,1009.82
2017-05-07T09:32:37.711Z,1009.83
2017-05-07T09:33:47.351Z,1009.8
2017-05-07T09:34:57.308Z,1009.83
2017-05-07T09:36:07.578Z,1009.82
2017-05-07T09:37:17.529Z,1009.86
2017-05-07T09:38:27.480Z,1009.83
2017-05-07T09:39:37.126Z,1009.82
2017-05-07T09:40:47.076Z,1009.84
2017-05-07T09:41:57.341Z,1009.87
2017-05-07T09:43:07.609Z,1009.89
2017-05-07T09:44:17.613Z,1009.88
2017-05-07T09:45:27.565Z,1009.9
2017-05-07T09:46:37.832Z,1009.88
2017-05-07T09:47:47.467Z,1009.89
2017-05-07T09:48:57.422Z,1009.86
2017-05-07T09:50:07.687Z,1009.83
2017-05-07T09:51:17.013Z,1009.8
2017-05-07T09:52:26.973Z,1009.81
2017-05-07T09:53:36.923Z,1009.83
2017-05-07T09:54:46.589Z,1009.79
2017-05-07T09:55:56.857Z,1009.77
2017-05-07T09:57:06.809Z,1009.8
2017-05-07T09:58:16.761Z,1009.77
2017-05-07T09:59:26.722Z,1009.8
2017-05-07T10:00:36.983Z,1009.77
2017-05-07T10:01:47.249Z,1009.77
2017-05-07T10:02:57.202Z,1009.77
2017-05-07T10:04:07.148Z,1009.78
2017-05-07T10:05:17.412Z,1009.76
2017-05-07T10:06:27.366Z,1009.76
2017-05-07T10:07:37.310Z,1009.77
2017-05-07T10:08:47.595Z,1009.79
2017-05-07T10:09:57.542Z,1009.79
2017-05-07T10:11:07.494Z,1009.81
2017-05-07T10:12:17.123Z,1009.8
2017-05-07T10:13:26.761Z,1009.81
2017-05-07T10:14:37.029Z,1009.78
2017-05-07T10:15:47.303Z,1009.81
2017-05-07T10:16:56.628Z,1009.77
2017-05-07T10:18:06.890Z,1009.79
2017-05-07T10:19:16.850Z,1009.81
2017-05-07T10:20:27.111Z,1009.84
2017-05-07T10:21:37.059Z,1009.81
2017-05-07T10:22:47.021Z,1009.79
2017-05-07T10:23:57.288Z,1009.81
2017-05-07T10:25:07.565Z,1009.81
2017-05-07T10:26:17.832Z,1009.8
2017-05-07T10:27:27.787Z,1009.81
2017-05-07T10:28:38.051Z,1009.78
2017-05-07T10:29:48.325Z,1009.74
2017-05-07T10:30:58.593Z,1009.74
2017-05-07T10:32:08.868Z,1009.73
2017-05-07T10:33:19.131Z,1009.73
2017-05-07T10:34:29.398Z,1009.74
2017-05-07T10:35:39.685Z,1009.72
2017-05-07T10:36:49.667Z,1009.74
2017-05-07T10:37:59.304Z,1009.76
2017-05-07T10:39:09.263Z,1009.74
2017-05-07T10:40:19.226Z,1009.75
2017-05-07T10:41:28.855Z,1009.75
2017-05-07T10:42:39.121Z,1009.71
2017-05-07T10:43:49.068Z,1009.71
2017-05-07T10:44:59.018Z,1009.71
2017-05-07T10:46:09.288Z,1009.74
2017-05-07T10:47:19.713Z,1009.73
2017-05-07T10:48:31.276Z,1009.7
2017-05-07T10:49:42.670Z,1009.68
2017-05-07T10:50:53.733Z,1009.67
2017-05-07T10:52:04.003Z,1009.69
2017-05-07T10:53:14.274Z,1009.7
2017-05-07T10:54:24.552Z,1009.71
2017-05-07T10:55:34.825Z,1009.68
2017-05-07T10:56:45.091Z,1009.68
2017-05-07T10:57:55.358Z,1009.71
2017-05-07T10:59:05.616Z,1009.71
2017-05-07T11:00:15.878Z,1009.7
2017-05-07T11:01:25.836Z,1009.7
2017-05-07T11:02:36.103Z,1009.68
2017-05-07T11:03:46.365Z,1009.67
2017-05-07T11:04:56.321Z,1009.69
2017-05-07T11:06:06.265Z,1009.67
2017-05-07T11:07:15.902Z,1009.67
2017-05-07T11:08:25.229Z,1009.65
2017-05-07T11:09:35.180Z,1009.62
2017-05-07T11:10:45.443Z,1009.62
2017-05-07T11:11:54.762Z,1009.61
2017-05-07T11:13:05.030Z,1009.59
2017-05-07T11:14:14.668Z,1009.59
2017-05-07T11:15:24.648Z,1009.59
2017-05-07T11:16:34.601Z,1009.61
2017-05-07T11:17:44.865Z,1009.57
2017-05-07T11:18:55.131Z,1009.59
2017-05-07T11:20:05.403Z,1009.57
2017-05-07T11:21:15.358Z,1009.52
2017-05-07T11:22:25.626Z,1009.49
2017-05-07T11:23:35.898Z,1009.48
2017-05-07T11:24:46.157Z,1009.53
2017-05-07T11:25:56.104Z,1009.5
2017-05-07T11:27:06.052Z,1009.51
2017-05-07T11:28:15.377Z,1009.52
2017-05-07T11:29:25.641Z,1009.52
2017-05-07T11:30:35.904Z,1009.51
2017-05-07T11:31:45.862Z,1009.49
2017-05-07T11:32:56.124Z,1009.48
2017-05-07T11:34:06.387Z,1009.45
2017-05-07T11:35:16.331Z,1009.46
2017-05-07T11:36:26.286Z,1009.42
2017-05-07T11:37:35.606Z,1009.44
2017-05-07T11:38:45.243Z,1009.45
2017-05-07T11:39:55.509Z,1009.41
2017-05-07T11:41:05.141Z,1009.32
2017-05-07T11:42:15.404Z,1009.35
2017-05-07T11:43:25.671Z,1009.29
2017-05-07T11:44:35.930Z,1009.33
2017-05-07T11:45:45.879Z,1009.35
2017-05-07T11:46:55.828Z,1009.35
2017-05-07T11:48:06.089Z,1009.35
2017-05-07T11:49:16.037Z,1009.35
2017-05-07T11:50:26.298Z,1009.33
2017-05-07T11:51:35.931Z,1009.35
2017-05-07T11:52:45.886Z,1009.32
2017-05-07T11:53:55.837Z,1009.27
2017-05-07T11:55:05.788Z,1009.26
2017-05-07T11:56:16.052Z,1009.28
2017-05-07T11:57:26.313Z,1009.27
2017-05-07T11:58:36.273Z,1009.27
2017-05-07T11:59:46.546Z,1009.26
2017-05-07T12:00:56.809Z,1009.25
2017-05-07T12:02:07.075Z,1009.28
2017-05-07T12:03:17.025Z,1009.24
2017-05-07T12:04:26.978Z,1009.2
2017-05-07T12:05:37.251Z,1009.24
2017-05-07T12:06:47.580Z,1009.24
2017-05-07T12:07:57.526Z,1009.16
2017-05-07T12:09:07.792Z,1009.21
2017-05-07T12:10:17.751Z,1009.17
2017-05-07T12:11:28.017Z,1009.2
2017-05-07T12:12:38.280Z,1009.2
2017-05-07T12:13:48.546Z,1009.2
2017-05-07T12:14:58.507Z,1009.19
2017-05-07T12:16:08.783Z,1009.15
2017-05-07T12:17:19.064Z,1009.17
2017-05-07T12:18:28.389Z,1009.2
2017-05-07T12:19:38.340Z,1009.22
2017-05-07T12:20:48.617Z,1009.23
2017-05-07T12:21:57.938Z,1009.27
2017-05-07T12:23:07.904Z,1009.23
2017-05-07T12:24:17.855Z,1009.21
2017-05-07T12:25:28.111Z,1009.23
2017-05-07T12:26:38.375Z,1009.17
2017-05-07T12:27:48.641Z,1009.14
2017-05-07T12:28:58.910Z,1009.12
2017-05-07T12:30:08.231Z,1009.15
2017-05-07T12:31:18.176Z,1009.11
2017-05-07T12:32:28.133Z,1009.13
2017-05-07T12:33:38.411Z,1009.12
2017-05-07T12:34:48.365Z,1009.12
2017-05-07T12:35:58.631Z,1009.08
2017-05-07T12:37:08.586Z,1009.13
2017-05-07T12:38:18.858Z,1009.09
2017-05-07T12:39:28.489Z,1009.06
2017-05-07T12:40:38.124Z,1009.04
2017-05-07T12:41:48.425Z,1009.02
2017-05-07T12:42:58.693Z,1009.07
2017-05-07T12:44:08.959Z,1009.05
2017-05-07T12:45:18.915Z,1009.02
2017-05-07T12:46:28.883Z,1009.08
2017-05-07T12:47:38.841Z,1009.05
2017-05-07T12:48:49.115Z,1009
2017-05-07T12:49:59.081Z,1009.02
2017-05-07T12:51:09.042Z,1008.95
2017-05-07T12:52:19.315Z,1008.95
2017-05-07T12:53:29.582Z,1008.99
2017-05-07T12:54:39.533Z,1008.98
2017-05-07T12:55:49.796Z,1008.94
2017-05-07T12:56:59.751Z,1009
2017-05-07T12:58:09.394Z,1008.99
2017-05-07T12:59:18.720Z,1009
2017-05-07T13:00:28.671Z,1009
2017-05-07T13:01:38.927Z,1008.99
2017-05-07T13:02:48.570Z,1009.01
2017-05-07T13:03:58.205Z,1009.01
2017-05-07T13:05:08.490Z,1009
2017-05-07T13:06:18.158Z,1008.98
2017-05-07T13:07:27.799Z,1008.94
2017-05-07T13:08:37.441Z,1008.91
2017-05-07T13:09:47.384Z,1008.9
2017-05-07T13:10:57.645Z,1008.84
2017-05-07T13:12:07.601Z,1008.84
2017-05-07T13:13:17.890Z,1008.82
2017-05-07T13:14:28.153Z,1008.84
2017-05-07T13:15:38.434Z,1008.81
2017-05-07T13:16:48.389Z,1008.79
2017-05-07T13:17:58.661Z,1008.8
2017-05-07T13:19:08.296Z,1008.81
2017-05-07T13:20:17.925Z,1008.75
2017-05-07T13:21:27.878Z,1008.81
2017-05-07T13:22:38.144Z,1008.79
2017-05-07T13:23:48.446Z,1008.78
2017-05-07T13:24:58.760Z,1008.77
2017-05-07T13:26:08.760Z,1008.71
2017-05-07T13:27:19.028Z,1008.68
2017-05-07T13:28:28.980Z,1008.69
2017-05-07T13:29:38.935Z,1008.68
2017-05-07T13:30:48.886Z,1008.71
2017-05-07T13:31:58.842Z,1008.72
2017-05-07T13:33:08.789Z,1008.71
2017-05-07T13:34:18.747Z,1008.71
2017-05-07T13:35:28.700Z,1008.66
2017-05-07T13:36:38.658Z,1008.69
2017-05-07T13:37:48.924Z,1008.68
2017-05-07T13:38:58.881Z,1008.69
2017-05-07T13:40:09.145Z,1008.65
2017-05-07T13:41:18.780Z,1008.61
2017-05-07T13:42:29.042Z,1008.63
2017-05-07T13:43:38.995Z,1008.67
2017-05-07T13:44:49.258Z,1008.71
2017-05-07T13:45:58.940Z,1008.72
2017-05-07T13:47:08.577Z,1008.73
2017-05-07T13:48:18.847Z,1008.68
2017-05-07T13:49:28.794Z,1008.66
2017-05-07T13:50:39.060Z,1008.65
2017-05-07T13:51:49.337Z,1008.62
2017-05-07T13:52:59.290Z,1008.64
2017-05-07T13:54:09.238Z,1008.59
2017-05-07T13:55:19.518Z,1008.56
2017-05-07T13:56:29.778Z,1008.63
2017-05-07T13:57:39.725Z,1008.64
2017-05-07T13:58:49.999Z,1008.58
2017-05-07T14:00:00.267Z,1008.64
2017-05-07T14:01:10.226Z,1008.56
2017-05-07T14:02:20.529Z,1008.55
2017-05-07T14:03:30.794Z,1008.5
2017-05-07T14:04:40.743Z,1008.5
2017-05-07T14:05:50.696Z,1008.53
2017-05-07T14:07:00.643Z,1008.56
2017-05-07T14:08:10.285Z,1008.54
2017-05-07T14:09:20.238Z,1008.52
2017-05-07T14:10:29.874Z,1008.52
2017-05-07T14:11:40.137Z,1008.46